Shokokon, Illinois
Current Conditions -  °F | °C
As of 8:53 AM on Thursday 30 Oct 2014 (Local Time) from KBRL Reporting Station
Overcast Overcast  
Wind Chill: 40°   Ceiling: 9000
Heat Index: 43°   Visibility: 10mi
Dew Point: 36°   Wind: 5mph
Humidity: 76%   Direction: 150°SSE
Pressure: 30.1"   Gusts: NA
Location:  40.7646°N, 91.0498°W
Report Text: KBRL 301353Z AUTO 15004KT 10SM BKN090 OVC110 06/02 A3010 RMK AO2 SLP196 T00610022
Loading
Personal Weather Stations






























Interactive Weather Map
Tropical Storm Tracking
New forecast layout! Learn more

10-Day Weather Forecast

Advertisements
Track Severe Weather on mobile